createdAt,value
2024-02-26T00:00:33.513Z,988.6
2024-02-26T00:01:47.809Z,988.6
2024-02-26T00:03:02.097Z,988.6
2024-02-26T00:04:16.390Z,988.6
2024-02-26T00:05:30.687Z,988.6
2024-02-26T00:06:44.387Z,988.6
2024-02-26T00:07:59.273Z,988.6
2024-02-26T00:09:13.567Z,988.6
2024-02-26T00:10:27.865Z,988.6
2024-02-26T00:11:42.154Z,988.6
2024-02-26T00:12:56.448Z,988.6
2024-02-26T00:14:10.742Z,988.6
2024-02-26T00:15:25.042Z,988.6
2024-02-26T00:16:38.352Z,988.6
2024-02-26T00:17:52.646Z,988.6
2024-02-26T00:19:06.940Z,988.5
2024-02-26T00:20:21.230Z,988.5
2024-02-26T00:21:35.524Z,988.5
2024-02-26T00:22:49.820Z,988.5
2024-02-26T00:24:04.115Z,988.5
2024-02-26T00:25:18.405Z,988.5
2024-02-26T00:26:32.707Z,988.5
2024-02-26T00:27:47.001Z,988.4
2024-02-26T00:29:01.294Z,988.4
2024-02-26T00:30:15.587Z,988.4
2024-02-26T00:31:29.876Z,988.4
2024-02-26T00:32:43.185Z,988.4
2024-02-26T00:33:57.481Z,988.4
2024-02-26T00:35:11.776Z,988.4
2024-02-26T00:36:26.069Z,988.5
2024-02-26T00:37:40.363Z,988.5
2024-02-26T00:38:54.663Z,988.5
2024-02-26T00:40:08.956Z,988.4
2024-02-26T00:41:23.252Z,988.4
2024-02-26T00:42:37.540Z,988.4
2024-02-26T00:43:51.836Z,988.4
2024-02-26T00:45:06.137Z,988.3
2024-02-26T00:46:20.428Z,988.3
2024-02-26T00:47:34.718Z,988.3
2024-02-26T00:48:48.031Z,988.3
2024-02-26T00:50:02.329Z,988.3
2024-02-26T00:51:16.623Z,988.3
2024-02-26T00:52:30.909Z,988.3
2024-02-26T00:53:45.212Z,988.3
2024-02-26T00:54:59.499Z,988.3
2024-02-26T00:56:13.791Z,988.3
2024-02-26T00:57:28.089Z,988.2
2024-02-26T00:58:42.387Z,988.2
2024-02-26T00:59:56.685Z,988.2
2024-02-26T01:01:10.976Z,988.2
2024-02-26T01:02:25.270Z,988.2
2024-02-26T01:03:39.562Z,988.1
2024-02-26T01:04:52.872Z,988.1
2024-02-26T01:06:07.170Z,988.1
2024-02-26T01:07:21.462Z,988.1
2024-02-26T01:08:35.755Z,988.1
2024-02-26T01:09:50.051Z,988.1
2024-02-26T01:11:04.345Z,988.1
2024-02-26T01:12:17.661Z,988.1
2024-02-26T01:13:31.952Z,988.1
2024-02-26T01:14:46.250Z,988.1
2024-02-26T01:16:00.540Z,988.1
2024-02-26T01:17:14.840Z,988.1
2024-02-26T01:18:29.125Z,988.1
2024-02-26T01:19:43.457Z,988.1
2024-02-26T01:20:57.714Z,988
2024-02-26T01:22:12.010Z,988
2024-02-26T01:23:26.310Z,988
2024-02-26T01:24:40.600Z,988
2024-02-26T01:25:54.893Z,988
2024-02-26T01:27:09.185Z,988
2024-02-26T01:28:22.502Z,988
2024-02-26T01:29:36.790Z,988
2024-02-26T01:30:51.089Z,988
2024-02-26T01:32:05.382Z,987.9
2024-02-26T01:33:19.675Z,987.9
2024-02-26T01:34:33.965Z,987.9
2024-02-26T01:35:48.268Z,987.9
2024-02-26T01:37:02.558Z,987.9
2024-02-26T01:38:16.850Z,987.9
2024-02-26T01:39:31.150Z,987.8
2024-02-26T01:40:45.438Z,987.8
2024-02-26T01:41:59.735Z,987.8
2024-02-26T01:43:14.032Z,987.8
2024-02-26T01:44:27.340Z,987.8
2024-02-26T01:45:41.628Z,987.8
2024-02-26T01:46:55.931Z,987.8
2024-02-26T01:48:10.219Z,987.8
2024-02-26T01:49:24.514Z,987.8
2024-02-26T01:50:38.809Z,987.8
2024-02-26T01:51:53.105Z,987.7
2024-02-26T01:53:07.402Z,987.7
2024-02-26T01:54:21.693Z,987.7
2024-02-26T01:55:35.989Z,987.7
2024-02-26T01:56:50.283Z,987.6
2024-02-26T01:58:04.574Z,987.6
2024-02-26T01:59:18.865Z,987.6
2024-02-26T02:00:32.182Z,987.6
2024-02-26T02:01:46.471Z,987.6
2024-02-26T02:03:00.768Z,987.6
2024-02-26T02:04:15.062Z,987.6
2024-02-26T02:05:29.352Z,987.6
2024-02-26T02:06:43.645Z,987.6
2024-02-26T02:07:57.942Z,987.5
2024-02-26T02:09:12.239Z,987.5
2024-02-26T02:10:26.532Z,987.5
2024-02-26T02:11:40.825Z,987.5
2024-02-26T02:12:55.115Z,987.5
2024-02-26T02:14:09.411Z,987.5
2024-02-26T02:15:23.710Z,987.5
2024-02-26T02:16:37.018Z,987.5
2024-02-26T02:17:51.315Z,987.5
2024-02-26T02:19:05.609Z,987.5
2024-02-26T02:20:19.904Z,987.4
2024-02-26T02:21:34.193Z,987.4
2024-02-26T02:22:48.486Z,987.4
2024-02-26T02:24:02.778Z,987.4
2024-02-26T02:25:17.072Z,987.5
2024-02-26T02:26:31.371Z,987.5
2024-02-26T02:27:45.662Z,987.5
2024-02-26T02:28:59.956Z,987.5
2024-02-26T02:30:14.254Z,987.5
2024-02-26T02:31:28.548Z,987.5
2024-02-26T02:32:41.854Z,987.5
2024-02-26T02:33:56.156Z,987.5
2024-02-26T02:35:10.447Z,987.5
2024-02-26T02:36:24.741Z,987.6
2024-02-26T02:37:39.030Z,987.6
2024-02-26T02:38:53.331Z,987.5
2024-02-26T02:40:07.626Z,987.5
2024-02-26T02:41:21.916Z,987.6
2024-02-26T02:42:36.211Z,987.6
2024-02-26T02:43:50.500Z,987.6
2024-02-26T02:45:04.801Z,987.6
2024-02-26T02:46:19.093Z,987.6
2024-02-26T02:47:33.383Z,987.6
2024-02-26T02:48:46.698Z,987.6
2024-02-26T02:50:00.324Z,987.6
2024-02-26T02:51:15.280Z,987.7
2024-02-26T02:52:29.583Z,987.7
2024-02-26T02:53:43.868Z,987.7
2024-02-26T02:54:58.165Z,987.8
2024-02-26T02:56:12.458Z,987.8
2024-02-26T02:57:26.757Z,987.8
2024-02-26T02:58:41.048Z,987.8
2024-02-26T02:59:55.347Z,987.8
2024-02-26T03:01:09.636Z,987.8
2024-02-26T03:02:23.929Z,987.8
2024-02-26T03:03:38.229Z,987.8
2024-02-26T03:04:51.539Z,987.8
2024-02-26T03:06:05.829Z,987.8
2024-02-26T03:07:20.124Z,987.9
2024-02-26T03:08:34.422Z,987.9
2024-02-26T03:09:48.713Z,988
2024-02-26T03:11:03.002Z,988
2024-02-26T03:12:16.624Z,988
2024-02-26T03:13:31.590Z,988
2024-02-26T03:14:45.888Z,988
2024-02-26T03:16:00.179Z,988
2024-02-26T03:17:14.479Z,988
2024-02-26T03:18:28.769Z,988
2024-02-26T03:19:43.066Z,988
2024-02-26T03:20:56.370Z,987.9
2024-02-26T03:22:10.671Z,987.9
2024-02-26T03:23:24.966Z,987.9
2024-02-26T03:24:39.256Z,987.9
2024-02-26T03:25:53.553Z,987.9
2024-02-26T03:27:07.847Z,988
2024-02-26T03:28:22.139Z,988
2024-02-26T03:29:36.429Z,988
2024-02-26T03:30:50.723Z,988
2024-02-26T03:32:05.026Z,988
2024-02-26T03:33:19.319Z,988
2024-02-26T03:34:33.606Z,988
2024-02-26T03:35:47.901Z,988
2024-02-26T03:37:01.209Z,988
2024-02-26T03:38:15.507Z,988
2024-02-26T03:39:29.805Z,988
2024-02-26T03:40:44.099Z,988
2024-02-26T03:41:58.391Z,988
2024-02-26T03:43:12.683Z,988
2024-02-26T03:44:26.974Z,988
2024-02-26T03:45:41.273Z,988
2024-02-26T03:46:55.569Z,988
2024-02-26T03:48:09.856Z,988
2024-02-26T03:49:24.152Z,988
2024-02-26T03:50:38.452Z,988
2024-02-26T03:51:52.045Z,988
2024-02-26T03:53:06.050Z,988
2024-02-26T03:54:20.344Z,988
2024-02-26T03:55:34.638Z,988
2024-02-26T03:56:48.934Z,988
2024-02-26T03:58:03.227Z,988
2024-02-26T03:59:17.523Z,988
2024-02-26T04:00:31.821Z,988
2024-02-26T04:01:46.112Z,988
2024-02-26T04:03:00.405Z,988
2024-02-26T04:04:14.698Z,988
2024-02-26T04:05:28.997Z,988
2024-02-26T04:06:43.289Z,988.1
2024-02-26T04:07:57.581Z,988.1
2024-02-26T04:09:10.891Z,988.1
2024-02-26T04:10:25.180Z,988.1
2024-02-26T04:11:39.474Z,988.1
2024-02-26T04:12:53.774Z,988.1
2024-02-26T04:14:08.065Z,988.1
2024-02-26T04:15:21.659Z,988.1
2024-02-26T04:16:36.651Z,988.1
2024-02-26T04:17:50.945Z,988.1
2024-02-26T04:19:05.240Z,988.1
2024-02-26T04:20:19.540Z,988.1
2024-02-26T04:21:33.830Z,988.1
2024-02-26T04:22:48.124Z,988.1
2024-02-26T04:24:02.416Z,988.1
2024-02-26T04:25:15.726Z,988.1
2024-02-26T04:26:30.020Z,988.1
2024-02-26T04:27:44.314Z,988.1
2024-02-26T04:28:58.609Z,988.1
2024-02-26T04:30:12.908Z,988.1
2024-02-26T04:31:27.201Z,988.1
2024-02-26T04:32:41.499Z,988.1
2024-02-26T04:33:55.787Z,988.1
2024-02-26T04:35:10.083Z,988
2024-02-26T04:36:24.383Z,988
2024-02-26T04:37:38.675Z,988
2024-02-26T04:38:52.963Z,988
2024-02-26T04:40:07.258Z,988
2024-02-26T04:41:20.574Z,988
2024-02-26T04:42:34.868Z,988
2024-02-26T04:43:49.163Z,988
2024-02-26T04:45:03.453Z,988
2024-02-26T04:46:17.748Z,988
2024-02-26T04:47:32.046Z,988
2024-02-26T04:48:46.340Z,988
2024-02-26T04:50:00.632Z,988
2024-02-26T04:51:14.926Z,988
2024-02-26T04:52:29.217Z,988
2024-02-26T04:53:43.509Z,988
2024-02-26T04:54:57.812Z,988
2024-02-26T04:56:12.105Z,988
2024-02-26T04:57:25.415Z,988
2024-02-26T04:58:39.704Z,988
2024-02-26T04:59:54.004Z,988
2024-02-26T05:01:08.296Z,988.1
2024-02-26T05:02:22.590Z,988.1
2024-02-26T05:03:36.886Z,988.1
2024-02-26T05:04:51.174Z,988.1
2024-02-26T05:06:05.472Z,988.1
2024-02-26T05:07:19.779Z,988.2
2024-02-26T05:08:34.060Z,988.2
2024-02-26T05:09:48.353Z,988.2
2024-02-26T05:11:02.645Z,988.2
2024-02-26T05:12:16.944Z,988.2
2024-02-26T05:13:30.247Z,988.2
2024-02-26T05:14:44.548Z,988.3
2024-02-26T05:15:58.104Z,988.3
2024-02-26T05:17:13.137Z,988.3
2024-02-26T05:18:27.424Z,988.2
2024-02-26T05:19:41.720Z,988.2
2024-02-26T05:20:55.034Z,988.2
2024-02-26T05:22:09.329Z,988.2
2024-02-26T05:23:23.622Z,988.3
2024-02-26T05:24:37.921Z,988.3
2024-02-26T05:25:52.217Z,988.3
2024-02-26T05:27:06.504Z,988.3
2024-02-26T05:28:20.803Z,988.3
2024-02-26T05:29:35.099Z,988.3
2024-02-26T05:30:49.392Z,988.3
2024-02-26T05:32:03.681Z,988.3
2024-02-26T05:33:17.978Z,988.3
2024-02-26T05:34:32.276Z,988.3
2024-02-26T05:35:46.569Z,988.3
2024-02-26T05:36:59.881Z,988.3
2024-02-26T05:38:14.119Z,988.3
2024-02-26T05:39:28.365Z,988.3
2024-02-26T05:40:42.611Z,988.3
2024-02-26T05:41:56.904Z,988.2
2024-02-26T05:43:11.152Z,988.3
2024-02-26T05:44:25.451Z,988.3
2024-02-26T05:45:39.704Z,988.3
2024-02-26T05:46:53.942Z,988.3
2024-02-26T05:48:08.178Z,988.3
2024-02-26T05:49:22.420Z,988.3
2024-02-26T05:50:36.662Z,988.3
2024-02-26T05:51:50.903Z,988.3
2024-02-26T05:53:04.154Z,988.3
2024-02-26T05:54:18.394Z,988.3
2024-02-26T05:55:32.637Z,988.3
2024-02-26T05:56:46.881Z,988.3
2024-02-26T05:58:01.122Z,988.3
2024-02-26T05:59:15.356Z,988.3
2024-02-26T06:00:29.600Z,988.3
2024-02-26T06:01:43.843Z,988.3
2024-02-26T06:02:58.082Z,988.3
2024-02-26T06:04:12.315Z,988.3
2024-02-26T06:05:26.562Z,988.3
2024-02-26T06:06:40.802Z,988.3
2024-02-26T06:07:55.035Z,988.2
2024-02-26T06:09:08.296Z,988.2
2024-02-26T06:10:22.533Z,988.2
2024-02-26T06:11:36.778Z,988.2
2024-02-26T06:12:51.016Z,988.2
2024-02-26T06:14:05.259Z,988.2
2024-02-26T06:15:19.492Z,988.2
2024-02-26T06:16:33.737Z,988.2
2024-02-26T06:17:47.972Z,988.3
2024-02-26T06:19:02.214Z,988.3
2024-02-26T06:20:16.454Z,988.3
2024-02-26T06:21:30.692Z,988.3
2024-02-26T06:22:44.940Z,988.3
2024-02-26T06:23:59.179Z,988.3
2024-02-26T06:25:12.434Z,988.3
2024-02-26T06:26:26.671Z,988.3
2024-02-26T06:27:40.913Z,988.3
2024-02-26T06:28:55.158Z,988.4
2024-02-26T06:30:09.391Z,988.4
2024-02-26T06:31:23.630Z,988.4
2024-02-26T06:32:37.874Z,988.4
2024-02-26T06:33:52.119Z,988.4
2024-02-26T06:35:06.358Z,988.4
2024-02-26T06:36:20.598Z,988.4
2024-02-26T06:37:34.834Z,988.4
2024-02-26T06:38:49.073Z,988.4
2024-02-26T06:40:03.315Z,988.4
2024-02-26T06:41:16.572Z,988.4
2024-02-26T06:42:30.864Z,988.5
2024-02-26T06:43:45.051Z,988.5
2024-02-26T06:44:59.291Z,988.5
2024-02-26T06:46:13.531Z,988.5
2024-02-26T06:47:27.769Z,988.5
2024-02-26T06:48:42.010Z,988.5
2024-02-26T06:49:56.248Z,988.5
2024-02-26T06:51:10.490Z,988.6
2024-02-26T06:52:24.731Z,988.6
2024-02-26T06:53:38.976Z,988.6
2024-02-26T06:54:53.214Z,988.6
2024-02-26T06:56:07.454Z,988.6
2024-02-26T06:57:20.710Z,988.6
2024-02-26T06:58:34.952Z,988.6
2024-02-26T06:59:49.187Z,988.7
2024-02-26T07:01:03.427Z,988.7
2024-02-26T07:02:17.672Z,988.7
2024-02-26T07:03:31.905Z,988.7
2024-02-26T07:04:46.146Z,988.7
2024-02-26T07:06:00.385Z,988.7
2024-02-26T07:07:14.631Z,988.7
2024-02-26T07:08:28.872Z,988.7
2024-02-26T07:09:43.114Z,988.8
2024-02-26T07:10:57.351Z,988.8
2024-02-26T07:12:11.590Z,988.8
2024-02-26T07:13:24.843Z,988.8
2024-02-26T07:14:39.083Z,988.8
2024-02-26T07:15:53.327Z,988.8
2024-02-26T07:17:07.561Z,988.8
2024-02-26T07:18:21.804Z,988.7
2024-02-26T07:19:36.049Z,988.8
2024-02-26T07:20:50.284Z,988.8
2024-02-26T07:22:04.529Z,988.8
2024-02-26T07:23:18.760Z,988.7
2024-02-26T07:24:33.001Z,988.7
2024-02-26T07:25:47.246Z,988.7
2024-02-26T07:27:01.480Z,988.7
2024-02-26T07:28:15.725Z,988.7
2024-02-26T07:29:28.983Z,988.7
2024-02-26T07:30:43.223Z,988.7
2024-02-26T07:31:57.459Z,988.7
2024-02-26T07:33:11.699Z,988.7
2024-02-26T07:34:25.941Z,988.7
2024-02-26T07:35:40.177Z,988.8
2024-02-26T07:36:54.418Z,988.8
2024-02-26T07:38:08.664Z,988.8
2024-02-26T07:39:22.897Z,988.8
2024-02-26T07:40:37.140Z,988.8
2024-02-26T07:41:51.378Z,988.8
2024-02-26T07:43:05.617Z,988.8
2024-02-26T07:44:19.862Z,988.8
2024-02-26T07:45:33.116Z,988.8
2024-02-26T07:46:47.356Z,988.8
2024-02-26T07:48:01.596Z,988.8
2024-02-26T07:49:15.835Z,988.8
2024-02-26T07:50:30.070Z,988.8
2024-02-26T07:51:44.316Z,988.8
2024-02-26T07:52:58.550Z,988.8
2024-02-26T07:54:12.789Z,988.8
2024-02-26T07:55:27.031Z,988.8
2024-02-26T07:56:41.273Z,988.9
2024-02-26T07:57:55.512Z,988.9
2024-02-26T07:59:09.753Z,988.9
2024-02-26T08:00:23.987Z,988.9
2024-02-26T08:01:37.247Z,988.9
2024-02-26T08:02:51.484Z,988.9
2024-02-26T08:04:05.730Z,988.9
2024-02-26T08:05:19.968Z,988.9
2024-02-26T08:06:34.201Z,989
2024-02-26T08:07:48.447Z,989
2024-02-26T08:09:02.685Z,989
2024-02-26T08:10:16.924Z,989
2024-02-26T08:11:31.169Z,989
2024-02-26T08:12:45.407Z,989
2024-02-26T08:13:59.642Z,989.1
2024-02-26T08:15:13.889Z,989.1
2024-02-26T08:16:28.120Z,989.1
2024-02-26T08:17:41.380Z,989.1
2024-02-26T08:18:55.619Z,989.1
2024-02-26T08:20:09.857Z,989
2024-02-26T08:21:24.098Z,989
2024-02-26T08:22:38.338Z,989
2024-02-26T08:23:52.584Z,989
2024-02-26T08:25:06.817Z,989
2024-02-26T08:26:21.060Z,989
2024-02-26T08:27:35.295Z,989
2024-02-26T08:28:49.535Z,989
2024-02-26T08:30:03.775Z,989.1
2024-02-26T08:31:18.015Z,989.1
2024-02-26T08:32:32.252Z,989.1
2024-02-26T08:33:45.513Z,989.1
2024-02-26T08:34:59.746Z,989.1
2024-02-26T08:36:13.994Z,989.1
2024-02-26T08:37:28.227Z,989.1
2024-02-26T08:38:42.470Z,989.1
2024-02-26T08:39:56.708Z,989.1
2024-02-26T08:41:10.943Z,989.2
2024-02-26T08:42:25.188Z,989.2
2024-02-26T08:43:39.426Z,989.1
2024-02-26T08:44:53.663Z,989.2
2024-02-26T08:46:07.904Z,989.1
2024-02-26T08:47:22.147Z,989.2
2024-02-26T08:48:36.381Z,989.2
2024-02-26T08:49:49.635Z,989.2
2024-02-26T08:51:03.880Z,989.2
2024-02-26T08:52:18.116Z,989.3
2024-02-26T08:53:32.362Z,989.3
2024-02-26T08:54:46.601Z,989.3
2024-02-26T08:56:00.839Z,989.3
2024-02-26T08:57:15.071Z,989.3
2024-02-26T08:58:29.310Z,989.4
2024-02-26T08:59:43.553Z,989.4
2024-02-26T09:00:57.790Z,989.4
2024-02-26T09:02:12.033Z,989.4
2024-02-26T09:04:40.514Z,989.4
2024-02-26T09:05:53.765Z,989.4
2024-02-26T09:07:08.011Z,989.4
2024-02-26T09:08:22.242Z,989.4
2024-02-26T09:09:36.485Z,989.4
2024-02-26T09:10:50.724Z,989.4
2024-02-26T09:12:04.960Z,989.4
2024-02-26T09:13:19.200Z,989.4
2024-02-26T09:14:33.447Z,989.4
2024-02-26T09:15:47.678Z,989.4
2024-02-26T09:17:01.925Z,989.4
2024-02-26T09:18:16.162Z,989.4
2024-02-26T09:19:30.403Z,989.4
2024-02-26T09:20:44.635Z,989.4
2024-02-26T09:21:57.893Z,989.4
2024-02-26T09:23:12.133Z,989.4
2024-02-26T09:24:26.370Z,989.4
2024-02-26T09:25:40.607Z,989.4
2024-02-26T09:26:54.852Z,989.4
2024-02-26T09:28:09.093Z,989.4
2024-02-26T09:29:22.355Z,989.4
2024-02-26T09:30:36.593Z,989.4
2024-02-26T09:31:50.826Z,989.3
2024-02-26T09:33:05.067Z,989.4
2024-02-26T09:34:19.310Z,989.4
2024-02-26T09:35:33.548Z,989.3
2024-02-26T09:36:47.783Z,989.3
2024-02-26T09:38:02.024Z,989.3
2024-02-26T09:39:16.264Z,989.3
2024-02-26T09:40:30.500Z,989.3
2024-02-26T09:41:44.739Z,989.3
2024-02-26T09:42:58.978Z,989.3
2024-02-26T09:44:13.216Z,989.4
2024-02-26T09:45:26.471Z,989.4
2024-02-26T09:46:40.717Z,989.4
2024-02-26T09:47:54.951Z,989.4
2024-02-26T09:49:09.191Z,989.4
2024-02-26T09:50:23.429Z,989.4
2024-02-26T09:51:37.668Z,989.4
2024-02-26T09:52:51.907Z,989.4
2024-02-26T09:54:06.148Z,989.4
2024-02-26T09:55:20.385Z,989.4
2024-02-26T09:56:34.620Z,989.4
2024-02-26T09:57:48.866Z,989.4
2024-02-26T09:59:03.101Z,989.4
2024-02-26T10:00:17.338Z,989.4
2024-02-26T10:02:44.832Z,989.3
2024-02-26T10:03:59.076Z,989.3
2024-02-26T10:05:13.318Z,989.3
2024-02-26T10:06:27.555Z,989.3
2024-02-26T10:07:41.797Z,989.3
2024-02-26T10:08:56.035Z,989.3
2024-02-26T10:10:10.272Z,989.3
2024-02-26T10:11:24.506Z,989.3
2024-02-26T10:12:38.753Z,989.3
2024-02-26T10:13:52.992Z,989.3
2024-02-26T10:15:07.226Z,989.3
2024-02-26T10:16:21.464Z,989.3
2024-02-26T10:17:34.721Z,989.3
2024-02-26T10:18:48.958Z,989.3
2024-02-26T10:20:03.200Z,989.4
2024-02-26T10:21:17.437Z,989.4
2024-02-26T10:22:31.678Z,989.4
2024-02-26T10:23:45.917Z,989.4
2024-02-26T10:25:00.159Z,989.4
2024-02-26T10:26:14.395Z,989.4
2024-02-26T10:27:28.634Z,989.4
2024-02-26T10:28:42.879Z,989.4
2024-02-26T10:29:57.114Z,989.4
2024-02-26T10:31:11.351Z,989.4
2024-02-26T10:32:25.591Z,989.4
2024-02-26T10:33:38.846Z,989.4
2024-02-26T10:34:53.086Z,989.4
2024-02-26T10:36:07.327Z,989.5
2024-02-26T10:37:21.566Z,989.4
2024-02-26T10:38:35.804Z,989.5
2024-02-26T10:39:50.046Z,989.5
2024-02-26T10:41:04.283Z,989.5
2024-02-26T10:42:18.516Z,989.5
2024-02-26T10:43:32.757Z,989.5
2024-02-26T10:44:46.995Z,989.5
2024-02-26T10:46:01.240Z,989.5
2024-02-26T10:47:15.477Z,989.5
2024-02-26T10:48:29.714Z,989.5
2024-02-26T10:49:42.975Z,989.5
2024-02-26T10:50:57.212Z,989.5
2024-02-26T10:52:11.447Z,989.5
2024-02-26T10:53:25.689Z,989.5
2024-02-26T10:54:39.924Z,989.5
2024-02-26T10:55:54.164Z,989.5
2024-02-26T10:57:08.404Z,989.5
2024-02-26T10:58:22.641Z,989.5
2024-02-26T10:59:36.883Z,989.5
2024-02-26T11:00:51.131Z,989.5
2024-02-26T11:02:05.360Z,989.5
2024-02-26T11:03:19.605Z,989.5
2024-02-26T11:04:33.844Z,989.5
2024-02-26T11:05:47.097Z,989.5
2024-02-26T11:07:01.338Z,989.5
2024-02-26T11:08:15.575Z,989.5
2024-02-26T11:09:29.820Z,989.5
2024-02-26T11:10:44.053Z,989.5
2024-02-26T11:11:58.300Z,989.6
2024-02-26T11:13:12.535Z,989.6
2024-02-26T11:14:26.776Z,989.6
2024-02-26T11:15:41.018Z,989.6
2024-02-26T11:16:55.248Z,989.6
2024-02-26T11:18:09.490Z,989.6
2024-02-26T11:19:23.736Z,989.6
2024-02-26T11:20:37.975Z,989.6
2024-02-26T11:21:51.223Z,989.6
2024-02-26T11:23:05.465Z,989.6
2024-02-26T11:24:19.703Z,989.6
2024-02-26T11:25:33.944Z,989.6
2024-02-26T11:26:48.185Z,989.6
2024-02-26T11:28:02.424Z,989.6
2024-02-26T11:29:16.660Z,989.5
2024-02-26T11:30:30.898Z,989.5
2024-02-26T11:31:45.146Z,989.5
2024-02-26T11:32:59.385Z,989.5
2024-02-26T11:34:13.624Z,989.5
2024-02-26T11:35:27.861Z,989.5
2024-02-26T11:36:42.104Z,989.5
2024-02-26T11:37:55.352Z,989.5
2024-02-26T11:39:09.598Z,989.5
2024-02-26T11:40:23.833Z,989.4
2024-02-26T11:41:38.072Z,989.4
2024-02-26T11:42:52.314Z,989.4
2024-02-26T11:44:06.556Z,989.4
2024-02-26T11:45:20.790Z,989.4
2024-02-26T11:46:35.027Z,989.4
2024-02-26T11:47:49.275Z,989.4
2024-02-26T11:49:03.505Z,989.4
2024-02-26T11:50:17.747Z,989.4
2024-02-26T11:51:31.990Z,989.4
2024-02-26T11:52:46.229Z,989.4
2024-02-26T11:53:59.479Z,989.4
2024-02-26T11:55:13.718Z,989.4
2024-02-26T11:56:27.966Z,989.4
2024-02-26T11:57:42.200Z,989.4
2024-02-26T11:58:56.438Z,989.4
2024-02-26T12:00:10.678Z,989.4
2024-02-26T12:01:24.915Z,989.4
2024-02-26T12:02:39.154Z,989.4
2024-02-26T12:03:53.394Z,989.4
2024-02-26T12:05:07.633Z,989.4
2024-02-26T12:06:21.874Z,989.4
2024-02-26T12:07:36.114Z,989.4
2024-02-26T12:08:50.357Z,989.4
2024-02-26T12:10:03.620Z,989.4
2024-02-26T12:11:17.849Z,989.5
2024-02-26T12:12:32.088Z,989.5
2024-02-26T12:13:46.328Z,989.5
2024-02-26T12:15:00.567Z,989.5
2024-02-26T12:16:14.804Z,989.5
2024-02-26T12:17:29.049Z,989.5
2024-02-26T12:18:43.282Z,989.4
2024-02-26T12:19:57.528Z,989.4
2024-02-26T12:21:11.761Z,989.4
2024-02-26T12:22:26.000Z,989.4
2024-02-26T12:23:40.243Z,989.4
2024-02-26T12:24:54.479Z,989.4
2024-02-26T12:26:07.734Z,989.4
2024-02-26T12:27:21.979Z,989.5
2024-02-26T12:28:36.218Z,989.5
2024-02-26T12:29:50.459Z,989.5
2024-02-26T12:31:04.700Z,989.5
2024-02-26T12:32:18.938Z,989.5
2024-02-26T12:33:33.179Z,989.5
2024-02-26T12:34:47.415Z,989.5
2024-02-26T12:36:01.650Z,989.5
2024-02-26T12:37:15.895Z,989.5
2024-02-26T12:38:30.130Z,989.5
2024-02-26T12:39:44.376Z,989.5
2024-02-26T12:40:58.613Z,989.5
2024-02-26T12:42:11.862Z,989.5
2024-02-26T12:43:26.106Z,989.5
2024-02-26T12:44:40.345Z,989.5
2024-02-26T12:45:54.590Z,989.5
2024-02-26T12:47:08.821Z,989.5
2024-02-26T12:48:23.061Z,989.5
2024-02-26T12:49:37.306Z,989.6
2024-02-26T12:50:51.542Z,989.6
2024-02-26T12:52:05.781Z,989.6
2024-02-26T12:53:20.027Z,989.6
2024-02-26T12:54:34.260Z,989.7
2024-02-26T12:55:48.505Z,989.7
2024-02-26T12:57:02.740Z,989.7
2024-02-26T12:58:16.000Z,989.7
2024-02-26T12:59:30.232Z,989.7
2024-02-26T13:00:44.478Z,989.7
2024-02-26T13:01:58.718Z,989.7
2024-02-26T13:03:12.954Z,989.7
2024-02-26T13:04:27.189Z,989.7
2024-02-26T13:05:41.428Z,989.7
2024-02-26T13:06:55.670Z,989.7
2024-02-26T13:08:09.909Z,989.8
2024-02-26T13:09:24.151Z,989.8
2024-02-26T13:10:38.384Z,989.8
2024-02-26T13:11:52.626Z,989.8
2024-02-26T13:13:06.870Z,989.8
2024-02-26T13:14:20.126Z,989.8
2024-02-26T13:15:34.361Z,989.9
2024-02-26T13:16:48.598Z,989.9
2024-02-26T13:18:02.836Z,989.9
2024-02-26T13:19:17.084Z,989.9
2024-02-26T13:20:31.320Z,989.9
2024-02-26T13:21:45.563Z,989.9
2024-02-26T13:22:59.794Z,989.9
2024-02-26T13:24:14.038Z,989.9
2024-02-26T13:25:28.281Z,990
2024-02-26T13:26:42.517Z,990
2024-02-26T13:27:56.751Z,990
2024-02-26T13:29:10.997Z,990
2024-02-26T13:30:24.246Z,990
2024-02-26T13:31:38.488Z,990
2024-02-26T13:32:52.734Z,990.1
2024-02-26T13:34:06.968Z,990.1
2024-02-26T13:35:21.207Z,990.1
2024-02-26T13:36:35.452Z,990.1
2024-02-26T13:37:48.709Z,990.1
2024-02-26T13:39:02.944Z,990.1
2024-02-26T13:40:17.191Z,990.1
2024-02-26T13:41:31.427Z,990.1
2024-02-26T13:42:45.663Z,990.1
2024-02-26T13:43:59.904Z,990.2
2024-02-26T13:45:14.141Z,990.2
2024-02-26T13:46:28.389Z,990.3
2024-02-26T13:47:42.626Z,990.3
2024-02-26T13:48:56.862Z,990.3
2024-02-26T13:50:11.102Z,990.3
2024-02-26T13:51:25.341Z,990.4
2024-02-26T13:52:39.579Z,990.3
2024-02-26T13:53:52.840Z,990.4
2024-02-26T13:55:07.079Z,990.4
2024-02-26T13:56:21.321Z,990.4
2024-02-26T13:57:35.555Z,990.4
2024-02-26T13:58:49.794Z,990.5
2024-02-26T14:00:04.033Z,990.5
2024-02-26T14:01:18.270Z,990.5
2024-02-26T14:02:32.513Z,990.4
2024-02-26T14:03:46.751Z,990.4
2024-02-26T14:05:00.989Z,990.4
2024-02-26T14:06:15.232Z,990.4
2024-02-26T14:07:29.466Z,990.4
2024-02-26T14:08:43.711Z,990.4
2024-02-26T14:09:56.966Z,990.4
2024-02-26T14:11:11.198Z,990.5
2024-02-26T14:13:39.678Z,990.5
2024-02-26T14:14:53.925Z,990.5
2024-02-26T14:16:08.159Z,990.5
2024-02-26T14:17:22.395Z,990.6
2024-02-26T14:18:36.634Z,990.6
2024-02-26T14:19:50.878Z,990.6
2024-02-26T14:21:05.111Z,990.7
2024-02-26T14:22:19.351Z,990.7
2024-02-26T14:23:33.590Z,990.7
2024-02-26T14:24:47.830Z,990.8
2024-02-26T14:26:01.087Z,990.8
2024-02-26T14:27:15.325Z,990.8
2024-02-26T14:28:29.570Z,990.8
2024-02-26T14:29:43.801Z,990.8
2024-02-26T14:30:58.039Z,990.8
2024-02-26T14:32:12.284Z,990.8
2024-02-26T14:33:26.519Z,990.8
2024-02-26T14:34:40.761Z,990.8
2024-02-26T14:35:55.005Z,990.8
2024-02-26T14:37:09.242Z,990.8
2024-02-26T14:38:23.473Z,990.8
2024-02-26T14:39:37.714Z,990.8
2024-02-26T14:40:51.957Z,990.7
2024-02-26T14:42:05.213Z,990.8
2024-02-26T14:43:19.452Z,990.8
2024-02-26T14:44:33.686Z,990.8
2024-02-26T14:45:47.929Z,990.8
2024-02-26T14:47:02.165Z,990.8
2024-02-26T14:48:16.402Z,990.8
2024-02-26T14:49:30.642Z,990.8
2024-02-26T14:50:44.888Z,990.7
2024-02-26T14:51:59.124Z,990.7
2024-02-26T14:53:13.361Z,990.7
2024-02-26T14:54:27.599Z,990.7
2024-02-26T14:55:41.842Z,990.7
2024-02-26T14:56:56.083Z,990.7
2024-02-26T14:58:09.332Z,990.7
2024-02-26T14:59:23.577Z,990.7
2024-02-26T15:00:37.813Z,990.7
2024-02-26T15:01:52.056Z,990.7
2024-02-26T15:03:06.292Z,990.7
2024-02-26T15:04:20.525Z,990.7
2024-02-26T15:05:34.765Z,990.7
2024-02-26T15:06:49.009Z,990.7
2024-02-26T15:08:03.249Z,990.7
2024-02-26T15:09:17.486Z,990.7
2024-02-26T15:10:31.723Z,990.7
2024-02-26T15:11:45.965Z,990.7
2024-02-26T15:13:00.199Z,990.7
2024-02-26T15:14:13.455Z,990.8
2024-02-26T15:15:27.694Z,990.8
2024-02-26T15:16:41.932Z,990.8
2024-02-26T15:17:56.171Z,990.8
2024-02-26T15:19:10.411Z,990.8
2024-02-26T15:20:24.653Z,990.8
2024-02-26T15:21:38.893Z,990.8
2024-02-26T15:22:53.134Z,990.8
2024-02-26T15:24:07.372Z,990.8
2024-02-26T15:25:21.606Z,990.8
2024-02-26T15:26:35.846Z,990.9
2024-02-26T15:27:50.085Z,990.9
2024-02-26T15:29:04.324Z,990.9
2024-02-26T15:30:17.580Z,990.9
2024-02-26T15:31:31.817Z,990.9
2024-02-26T15:32:46.062Z,990.9
2024-02-26T15:34:00.303Z,991
2024-02-26T15:35:14.541Z,991
2024-02-26T15:36:28.780Z,991
2024-02-26T15:37:43.021Z,991
2024-02-26T15:38:57.257Z,991
2024-02-26T15:40:11.499Z,991
2024-02-26T15:41:25.740Z,991
2024-02-26T15:42:39.979Z,991
2024-02-26T15:43:54.214Z,991
2024-02-26T15:45:08.457Z,990.9
2024-02-26T15:46:21.708Z,991
2024-02-26T15:47:35.951Z,990.9
2024-02-26T15:48:50.191Z,991
2024-02-26T15:50:04.428Z,991
2024-02-26T15:51:18.674Z,991
2024-02-26T15:52:32.907Z,991
2024-02-26T15:53:47.143Z,991
2024-02-26T15:55:01.389Z,991
2024-02-26T15:56:15.623Z,991.1
2024-02-26T15:57:29.868Z,991.1
2024-02-26T15:59:58.344Z,991.2
2024-02-26T16:01:12.580Z,991.2
2024-02-26T16:02:25.841Z,991.2
2024-02-26T16:03:40.079Z,991.2
2024-02-26T16:04:54.317Z,991.3
2024-02-26T16:06:08.554Z,991.3
2024-02-26T16:07:22.797Z,991.3
2024-02-26T16:08:37.031Z,991.3